Pagrindinis puslapis
METAR-TAF:

METAR-TAF

Oro uostai :

Palermas, Italija

platuma: 38-11N, ilguma: 013-06E, Aukštis: 21 m

Dabartinis oras

Ataskaita buvo paskelbta 10 minutes, ne 11:20 UTC
Vėjas 10 kt iš Šiaurės Rytų
Temperatūra 26°C
Drėgmė 74%
Slėgis 1020 hPa
Matomumas 10 km arba daugiau
Mažai debesys ne aukštis 200 ft

METAR: LICJ 211120Z 04010KT 9999 FEW002 26/21 Q1020

Laikas: 13:30 (11:30 UTC)

Prognozė

Ataskaita buvo paskelbta 6 valandos ir 30 minutes, ne 05:00 UTC
Prognozė galioja nuo 21 metu 06 UTC su 22 metu 06 UTC
Vėjas 4 kt nuo kintamojo kryptimis
Matomumas 10 km arba daugiau
Išsisklaidę debesys ne aukštis 3000 ft
Tapsmas
nuo 21 metu 08 UTC su 21 metu 10 UTC
Vėjas 12 kt iš Rytų/Šiaurės Rytų
Tapsmas
nuo 21 metu 18 UTC su 21 metu 20 UTC
Vėjas 4 kt nuo kintamojo kryptimis
Laikinai
nuo 22 metu 03 UTC su 22 metu 06 UTC
lietus

TAF: LICJ 210500Z 2106/2206 VRB04KT 9999 SCT030 BECMG 2108/2110 06012KT BECMG 2118/2120 VRB04KT TEMPO 2203/2206 RA

Orai ataskaitas ir orų prognozės (METAR, TAF).

turimą stotys yra geltonos ir raudonos taškus žemėlapyje.

Perkelti pele per norėdami pamatyti stoties vardą.

Tada spustelėkite, norėdami matyti oro stebėjimo ir prognozės.

Norėdami pakeisti žemėlapį: spustelėkite ant žalios mygtukų su juodo kryžiaus žemyn,; žalią mygtuką su brūkšneliu, jei norite nutolinti; arba žalių rodyklių gretimoms žemėlapius.


METAR-TAF: